sensor_id;sensor_type;location;lat;lon;timestamp;pressure;altitude;pressure_sealevel;temperature;humidity
17635;BME280;8936;49.010;12.120;2022-11-20T00:01:56;97406.19;;;4.13;100.00
17635;BME280;8936;49.010;12.120;2022-11-20T00:04:23;97391.53;;;3.94;100.00
17635;BME280;8936;49.010;12.120;2022-11-20T00:06:50;97396.38;;;3.86;100.00
17635;BME280;8936;49.010;12.120;2022-11-20T00:09:16;97406.97;;;3.74;100.00
17635;BME280;8936;49.010;12.120;2022-11-20T00:11:43;97404.22;;;3.57;100.00
17635;BME280;8936;49.010;12.120;2022-11-20T00:14:09;97399.50;;;3.59;100.00
17635;BME280;8936;49.010;12.120;2022-11-20T00:16:35;97402.84;;;3.55;100.00
17635;BME280;8936;49.010;12.120;2022-11-20T00:19:02;97406.97;;;3.74;100.00
17635;BME280;8936;49.010;12.120;2022-11-20T00:21:29;97405.91;;;3.75;100.00
17635;BME280;8936;49.010;12.120;2022-11-20T00:23:57;97408.69;;;3.68;100.00
17635;BME280;8936;49.010;12.120;2022-11-20T00:26:24;97403.66;;;3.67;100.00
17635;BME280;8936;49.010;12.120;2022-11-20T00:28:52;97405.25;;;3.33;100.00
17635;BME280;8936;49.010;12.120;2022-11-20T00:31:19;97403.53;;;3.15;100.00
17635;BME280;8936;49.010;12.120;2022-11-20T00:33:46;97398.47;;;3.02;100.00
17635;BME280;8936;49.010;12.120;2022-11-20T00:36:13;97403.28;;;3.05;100.00
17635;BME280;8936;49.010;12.120;2022-11-20T00:38:39;97408.25;;;3.37;100.00
17635;BME280;8936;49.010;12.120;2022-11-20T00:41:08;97408.13;;;3.66;100.00
17635;BME280;8936;49.010;12.120;2022-11-20T00:43:35;97409.81;;;3.84;100.00
17635;BME280;8936;49.010;12.120;2022-11-20T00:46:02;97415.41;;;3.99;100.00
17635;BME280;8936;49.010;12.120;2022-11-20T00:48:28;97405.44;;;4.01;100.00
17635;BME280;8936;49.010;12.120;2022-11-20T00:50:55;97403.78;;;4.12;100.00
17635;BME280;8936;49.010;12.120;2022-11-20T00:53:21;97404.25;;;4.20;100.00
17635;BME280;8936;49.010;12.120;2022-11-20T00:55:54;97412.25;;;3.86;100.00
17635;BME280;8936;49.010;12.120;2022-11-20T00:58:22;97402.53;;;4.14;100.00
17635;BME280;8936;49.010;12.120;2022-11-20T01:00:49;97398.84;;;4.15;100.00
17635;BME280;8936;49.010;12.120;2022-11-20T01:03:15;97399.38;;;3.89;100.00
17635;BME280;8936;49.010;12.120;2022-11-20T01:05:42;97395.38;;;3.87;100.00
17635;BME280;8936;49.010;12.120;2022-11-20T01:08:08;97398.19;;;4.08;100.00
17635;BME280;8936;49.010;12.120;2022-11-20T01:10:34;97396.69;;;4.01;100.00
17635;BME280;8936;49.010;12.120;2022-11-20T01:13:01;97418.19;;;3.81;100.00
17635;BME280;8936;49.010;12.120;2022-11-20T01:15:46;97406.16;;;3.50;100.00
17635;BME280;8936;49.010;12.120;2022-11-20T01:18:12;97422.34;;;3.77;100.00
17635;BME280;8936;49.010;12.120;2022-11-20T01:20:38;97415.03;;;3.56;100.00
17635;BME280;8936;49.010;12.120;2022-11-20T01:23:05;97422.47;;;3.36;100.00
17635;BME280;8936;49.010;12.120;2022-11-20T01:25:31;97416.28;;;3.53;100.00
17635;BME280;8936;49.010;12.120;2022-11-20T01:27:57;97427.28;;;3.39;100.00
17635;BME280;8936;49.010;12.120;2022-11-20T01:30:24;97420.63;;;3.48;100.00
17635;BME280;8936;49.010;12.120;2022-11-20T01:32:51;97424.09;;;3.37;100.00
17635;BME280;8936;49.010;12.120;2022-11-20T01:35:18;97416.53;;;3.40;100.00
17635;BME280;8936;49.010;12.120;2022-11-20T01:37:44;97416.16;;;3.60;100.00
17635;BME280;8936;49.010;12.120;2022-11-20T01:40:11;97419.38;;;3.62;100.00
17635;BME280;8936;49.010;12.120;2022-11-20T01:42:37;97427.50;;;3.72;100.00
17635;BME280;8936;49.010;12.120;2022-11-20T01:48:07;97429.22;;;3.32;100.00
17635;BME280;8936;49.010;12.120;2022-11-20T01:50:35;97426.25;;;3.28;100.00
17635;BME280;8936;49.010;12.120;2022-11-20T01:53:03;97426.16;;;3.46;100.00
17635;BME280;8936;49.010;12.120;2022-11-20T01:55:32;97424.41;;;3.63;100.00
17635;BME280;8936;49.010;12.120;2022-11-20T01:58:00;97422.69;;;3.92;100.00
17635;BME280;8936;49.010;12.120;2022-11-20T02:00:27;97423.59;;;3.74;100.00
17635;BME280;8936;49.010;12.120;2022-11-20T02:02:54;97422.38;;;3.42;100.00
17635;BME280;8936;49.010;12.120;2022-11-20T02:05:25;97419.38;;;3.62;100.00
17635;BME280;8936;49.010;12.120;2022-11-20T02:07:54;97409.63;;;3.74;100.00
17635;BME280;8936;49.010;12.120;2022-11-20T02:10:22;97413.84;;;3.87;100.00
17635;BME280;8936;49.010;12.120;2022-11-20T02:12:48;97412.94;;;3.58;100.00
17635;BME280;8936;49.010;12.120;2022-11-20T02:15:32;97411.34;;;3.57;100.00
17635;BME280;8936;49.010;12.120;2022-11-20T02:17:59;97415.22;;;3.89;100.00
17635;BME280;8936;49.010;12.120;2022-11-20T02:20:27;97402.06;;;4.06;100.00
17635;BME280;8936;49.010;12.120;2022-11-20T02:22:54;97408.06;;;4.01;100.00
17635;BME280;8936;49.010;12.120;2022-11-20T02:25:23;97400.81;;;4.08;100.00
17635;BME280;8936;49.010;12.120;2022-11-20T02:27:50;97412.34;;;3.91;100.00
17635;BME280;8936;49.010;12.120;2022-11-20T02:30:17;97404.13;;;4.15;100.00
17635;BME280;8936;49.010;12.120;2022-11-20T02:32:43;97412.84;;;4.16;100.00
17635;BME280;8936;49.010;12.120;2022-11-20T02:35:35;97404.66;;;4.29;100.00
17635;BME280;8936;49.010;12.120;2022-11-20T02:37:57;97402.22;;;4.39;100.00
17635;BME280;8936;49.010;12.120;2022-11-20T02:40:25;97414.25;;;4.47;100.00
17635;BME280;8936;49.010;12.120;2022-11-20T02:42:52;97400.56;;;4.50;100.00
17635;BME280;8936;49.010;12.120;2022-11-20T02:45:18;97400.06;;;4.53;100.00
17635;BME280;8936;49.010;12.120;2022-11-20T02:47:45;97398.03;;;4.55;100.00
17635;BME280;8936;49.010;12.120;2022-11-20T02:50:11;97401.44;;;4.55;100.00
17635;BME280;8936;49.010;12.120;2022-11-20T02:52:38;97390.16;;;4.60;100.00
17635;BME280;8936;49.010;12.120;2022-11-20T02:55:04;97405.28;;;4.48;100.00
17635;BME280;8936;49.010;12.120;2022-11-20T02:57:32;97394.44;;;4.21;100.00
17635;BME280;8936;49.010;12.120;2022-11-20T02:59:59;97400.09;;;4.13;100.00
17635;BME280;8936;49.010;12.120;2022-11-20T03:02:25;97395.72;;;4.18;100.00
17635;BME280;8936;49.010;12.120;2022-11-20T03:04:51;97388.25;;;4.27;100.00
17635;BME280;8936;49.010;12.120;2022-11-20T03:07:17;97388.41;;;4.37;100.00
17635;BME280;8936;49.010;12.120;2022-11-20T03:09:44;97385.16;;;4.47;100.00
17635;BME280;8936;49.010;12.120;2022-11-20T03:12:10;97383.94;;;4.38;100.00
17635;BME280;8936;49.010;12.120;2022-11-20T03:14:38;97377.47;;;4.17;100.00
17635;BME280;8936;49.010;12.120;2022-11-20T03:17:04;97382.81;;;4.05;100.00
17635;BME280;8936;49.010;12.120;2022-11-20T03:19:31;97380.44;;;4.20;100.00
17635;BME280;8936;49.010;12.120;2022-11-20T03:21:57;97385.22;;;4.35;100.00
17635;BME280;8936;49.010;12.120;2022-11-20T03:24:25;97385.88;;;4.42;100.00
17635;BME280;8936;49.010;12.120;2022-11-20T03:26:51;97387.00;;;4.46;100.00
17635;BME280;8936;49.010;12.120;2022-11-20T03:29:17;97393.97;;;4.52;100.00
17635;BME280;8936;49.010;12.120;2022-11-20T03:31:45;97388.19;;;4.39;100.00
17635;BME280;8936;49.010;12.120;2022-11-20T03:34:12;97390.59;;;4.00;100.00
17635;BME280;8936;49.010;12.120;2022-11-20T03:36:38;97390.72;;;4.05;100.00
17635;BME280;8936;49.010;12.120;2022-11-20T03:39:05;97384.50;;;4.11;100.00
17635;BME280;8936;49.010;12.120;2022-11-20T03:41:35;97387.75;;;3.90;100.00
17635;BME280;8936;49.010;12.120;2022-11-20T03:44:02;97397.00;;;3.64;100.00
17635;BME280;8936;49.010;12.120;2022-11-20T03:46:29;97393.88;;;3.79;100.00
17635;BME280;8936;49.010;12.120;2022-11-20T03:48:57;97395.03;;;3.83;100.00
17635;BME280;8936;49.010;12.120;2022-11-20T03:51:24;97396.22;;;4.04;100.00
17635;BME280;8936;49.010;12.120;2022-11-20T03:53:52;97392.06;;;3.68;100.00
17635;BME280;8936;49.010;12.120;2022-11-20T03:56:19;97392.84;;;3.68;100.00
17635;BME280;8936;49.010;12.120;2022-11-20T03:58:46;97393.75;;;3.86;100.00
17635;BME280;8936;49.010;12.120;2022-11-20T04:01:14;97388.56;;;4.02;100.00
17635;BME280;8936;49.010;12.120;2022-11-20T04:03:41;97385.88;;;4.14;100.00
17635;BME280;8936;49.010;12.120;2022-11-20T04:06:10;97384.81;;;4.26;100.00
17635;BME280;8936;49.010;12.120;2022-11-20T04:08:37;97388.66;;;4.35;100.00
17635;BME280;8936;49.010;12.120;2022-11-20T04:11:10;97389.78;;;4.40;100.00
17635;BME280;8936;49.010;12.120;2022-11-20T04:13:37;97391.94;;;4.43;100.00
17635;BME280;8936;49.010;12.120;2022-11-20T04:16:04;97386.66;;;4.43;100.00
17635;BME280;8936;49.010;12.120;2022-11-20T04:18:30;97391.66;;;4.39;100.00
17635;BME280;8936;49.010;12.120;2022-11-20T04:20:57;97389.63;;;4.29;100.00
17635;BME280;8936;49.010;12.120;2022-11-20T04:23:25;97390.38;;;3.90;100.00
17635;BME280;8936;49.010;12.120;2022-11-20T04:25:51;97381.69;;;3.90;100.00
17635;BME280;8936;49.010;12.120;2022-11-20T04:28:17;97388.38;;;3.69;100.00
17635;BME280;8936;49.010;12.120;2022-11-20T04:30:44;97383.47;;;3.49;100.00
17635;BME280;8936;49.010;12.120;2022-11-20T04:33:10;97375.88;;;3.64;100.00
17635;BME280;8936;49.010;12.120;2022-11-20T04:35:37;97375.50;;;3.72;100.00
17635;BME280;8936;49.010;12.120;2022-11-20T04:38:03;97375.41;;;3.67;100.00
17635;BME280;8936;49.010;12.120;2022-11-20T04:40:31;97371.03;;;3.73;100.00
17635;BME280;8936;49.010;12.120;2022-11-20T04:42:58;97377.66;;;3.99;100.00
17635;BME280;8936;49.010;12.120;2022-11-20T04:45:24;97378.28;;;3.77;100.00
17635;BME280;8936;49.010;12.120;2022-11-20T04:47:50;97379.44;;;3.58;100.00
17635;BME280;8936;49.010;12.120;2022-11-20T04:50:16;97382.88;;;3.36;100.00
17635;BME280;8936;49.010;12.120;2022-11-20T04:52:43;97379.19;;;3.13;100.00
17635;BME280;8936;49.010;12.120;2022-11-20T04:55:09;97380.47;;;3.22;100.00
17635;BME280;8936;49.010;12.120;2022-11-20T04:57:37;97369.13;;;3.34;100.00
17635;BME280;8936;49.010;12.120;2022-11-20T05:00:04;97382.66;;;3.25;100.00
17635;BME280;8936;49.010;12.120;2022-11-20T05:02:30;97376.59;;;3.37;100.00
17635;BME280;8936;49.010;12.120;2022-11-20T05:04:57;97374.72;;;2.91;100.00
17635;BME280;8936;49.010;12.120;2022-11-20T05:07:23;97376.34;;;3.26;100.00
17635;BME280;8936;49.010;12.120;2022-11-20T05:09:49;97378.97;;;3.50;100.00
17635;BME280;8936;49.010;12.120;2022-11-20T05:12:16;97377.72;;;3.29;100.00
17635;BME280;8936;49.010;12.120;2022-11-20T05:14:43;97364.97;;;3.38;100.00
17635;BME280;8936;49.010;12.120;2022-11-20T05:17:10;97368.44;;;3.26;100.00
17635;BME280;8936;49.010;12.120;2022-11-20T05:19:36;97375.19;;;3.22;100.00
17635;BME280;8936;49.010;12.120;2022-11-20T05:22:04;97364.75;;;3.04;100.00
17635;BME280;8936;49.010;12.120;2022-11-20T05:24:30;97374.28;;;3.17;100.00
17635;BME280;8936;49.010;12.120;2022-11-20T05:26:56;97371.84;;;2.92;100.00
17635;BME280;8936;49.010;12.120;2022-11-20T05:29:23;97377.00;;;2.99;100.00
17635;BME280;8936;49.010;12.120;2022-11-20T05:31:50;97379.50;;;2.82;100.00
17635;BME280;8936;49.010;12.120;2022-11-20T05:34:17;97374.00;;;2.84;100.00
17635;BME280;8936;49.010;12.120;2022-11-20T05:36:43;97371.50;;;3.00;100.00
17635;BME280;8936;49.010;12.120;2022-11-20T05:39:09;97371.63;;;2.94;100.00
17635;BME280;8936;49.010;12.120;2022-11-20T05:41:36;97379.31;;;2.95;100.00
17635;BME280;8936;49.010;12.120;2022-11-20T05:44:02;97377.56;;;2.89;100.00
17635;BME280;8936;49.010;12.120;2022-11-20T05:46:28;97380.22;;;2.89;100.00
17635;BME280;8936;49.010;12.120;2022-11-20T05:48:56;97369.44;;;2.91;100.00
17635;BME280;8936;49.010;12.120;2022-11-20T05:51:23;97377.47;;;2.84;100.00
17635;BME280;8936;49.010;12.120;2022-11-20T05:53:50;97372.41;;;2.83;100.00
17635;BME280;8936;49.010;12.120;2022-11-20T05:56:17;97368.84;;;2.77;100.00
17635;BME280;8936;49.010;12.120;2022-11-20T05:58:44;97367.53;;;3.09;100.00
17635;BME280;8936;49.010;12.120;2022-11-20T06:01:11;97369.22;;;3.04;100.00
17635;BME280;8936;49.010;12.120;2022-11-20T06:03:38;97372.88;;;2.91;100.00
17635;BME280;8936;49.010;12.120;2022-11-20T06:06:06;97368.41;;;3.03;100.00
17635;BME280;8936;49.010;12.120;2022-11-20T06:08:33;97376.31;;;2.92;100.00
17635;BME280;8936;49.010;12.120;2022-11-20T06:11:02;97376.00;;;3.23;100.00
17635;BME280;8936;49.010;12.120;2022-11-20T06:13:29;97379.75;;;3.73;100.00
17635;BME280;8936;49.010;12.120;2022-11-20T06:15:55;97380.03;;;3.49;100.00
17635;BME280;8936;49.010;12.120;2022-11-20T06:18:22;97377.94;;;3.51;100.00
17635;BME280;8936;49.010;12.120;2022-11-20T06:20:48;97376.34;;;3.15;100.00
17635;BME280;8936;49.010;12.120;2022-11-20T06:23:16;97368.63;;;2.90;100.00
17635;BME280;8936;49.010;12.120;2022-11-20T06:25:43;97369.09;;;2.87;100.00
17635;BME280;8936;49.010;12.120;2022-11-20T06:28:09;97367.97;;;3.18;100.00
17635;BME280;8936;49.010;12.120;2022-11-20T06:30:36;97372.63;;;3.62;100.00
17635;BME280;8936;49.010;12.120;2022-11-20T06:33:03;97372.28;;;3.82;100.00
17635;BME280;8936;49.010;12.120;2022-11-20T06:35:29;97369.22;;;3.62;100.00
17635;BME280;8936;49.010;12.120;2022-11-20T06:37:55;97371.41;;;3.18;100.00
17635;BME280;8936;49.010;12.120;2022-11-20T06:40:23;97370.63;;;3.06;100.00
17635;BME280;8936;49.010;12.120;2022-11-20T06:42:49;97367.53;;;3.09;100.00
17635;BME280;8936;49.010;12.120;2022-11-20T06:45:16;97372.34;;;3.12;100.00
17635;BME280;8936;49.010;12.120;2022-11-20T06:47:42;97378.63;;;3.00;100.00
17635;BME280;8936;49.010;12.120;2022-11-20T06:50:09;97379.19;;;3.13;100.00
17635;BME280;8936;49.010;12.120;2022-11-20T06:52:35;97380.25;;;3.36;100.00
17635;BME280;8936;49.010;12.120;2022-11-20T06:55:01;97384.84;;;3.40;100.00
17635;BME280;8936;49.010;12.120;2022-11-20T06:57:29;97393.44;;;3.12;100.00
17635;BME280;8936;49.010;12.120;2022-11-20T06:59:56;97381.53;;;3.21;100.00
17635;BME280;8936;49.010;12.120;2022-11-20T07:02:22;97389.63;;;2.97;100.00
17635;BME280;8936;49.010;12.120;2022-11-20T07:04:48;97378.06;;;3.09;100.00
17635;BME280;8936;49.010;12.120;2022-11-20T07:07:15;97383.56;;;3.19;100.00
17635;BME280;8936;49.010;12.120;2022-11-20T07:09:41;97391.94;;;3.28;100.00
17635;BME280;8936;49.010;12.120;2022-11-20T07:12:07;97384.25;;;3.26;100.00
17635;BME280;8936;49.010;12.120;2022-11-20T07:14:36;97386.09;;;3.26;100.00
17635;BME280;8936;49.010;12.120;2022-11-20T07:17:02;97385.63;;;3.41;100.00
17635;BME280;8936;49.010;12.120;2022-11-20T07:19:28;97389.19;;;3.58;100.00
17635;BME280;8936;49.010;12.120;2022-11-20T07:21:55;97391.13;;;3.51;100.00
17635;BME280;8936;49.010;12.120;2022-11-20T07:24:21;97376.56;;;3.48;100.00
17635;BME280;8936;49.010;12.120;2022-11-20T07:26:47;97386.31;;;3.48;100.00
17635;BME280;8936;49.010;12.120;2022-11-20T07:29:14;97384.03;;;3.40;100.00
17635;BME280;8936;49.010;12.120;2022-11-20T07:31:42;97376.44;;;3.55;100.00
17635;BME280;8936;49.010;12.120;2022-11-20T07:34:09;97379.31;;;3.53;100.00
17635;BME280;8936;49.010;12.120;2022-11-20T07:36:35;97390.78;;;3.47;100.00
17635;BME280;8936;49.010;12.120;2022-11-20T07:39:02;97388.41;;;3.34;100.00
17635;BME280;8936;49.010;12.120;2022-11-20T07:41:28;97380.47;;;3.22;100.00
17635;BME280;8936;49.010;12.120;2022-11-20T07:43:54;97385.28;;;3.25;100.00
17635;BME280;8936;49.010;12.120;2022-11-20T07:46:21;97383.44;;;3.26;100.00
17635;BME280;8936;49.010;12.120;2022-11-20T07:48:48;97377.81;;;3.22;100.00
17635;BME280;8936;49.010;12.120;2022-11-20T07:51:15;97384.59;;;3.30;100.00
17635;BME280;8936;49.010;12.120;2022-11-20T07:53:41;97386.09;;;3.26;100.00
17635;BME280;8936;49.010;12.120;2022-11-20T07:56:07;97389.31;;;3.40;100.00
17635;BME280;8936;49.010;12.120;2022-11-20T07:58:34;97389.78;;;3.37;100.00
17635;BME280;8936;49.010;12.120;2022-11-20T08:01:04;97393.34;;;3.31;100.00
17635;BME280;8936;49.010;12.120;2022-11-20T08:03:30;97396.88;;;3.36;100.00
17635;BME280;8936;49.010;12.120;2022-11-20T08:05:59;97399.19;;;3.33;100.00
17635;BME280;8936;49.010;12.120;2022-11-20T08:08:26;97396.19;;;3.41;100.00
17635;BME280;8936;49.010;12.120;2022-11-20T08:10:53;97389.78;;;3.37;100.00
17635;BME280;8936;49.010;12.120;2022-11-20T08:13:40;97388.72;;;3.38;100.00
17635;BME280;8936;49.010;12.120;2022-11-20T08:16:24;97392.53;;;3.42;100.00
17635;BME280;8936;49.010;12.120;2022-11-20T08:18:50;97393.44;;;3.47;100.00
17635;BME280;8936;49.010;12.120;2022-11-20T08:21:18;97383.53;;;3.66;100.00
17635;BME280;8936;49.010;12.120;2022-11-20T08:23:44;97389.50;;;3.73;100.00
17635;BME280;8936;49.010;12.120;2022-11-20T08:26:10;97389.75;;;3.83;100.00
17635;BME280;8936;49.010;12.120;2022-11-20T08:28:37;97385.69;;;3.92;100.00
17635;BME280;8936;49.010;12.120;2022-11-20T08:31:04;97388.09;;;4.05;100.00
17635;BME280;8936;49.010;12.120;2022-11-20T08:33:30;97390.34;;;4.13;100.00
17635;BME280;8936;49.010;12.120;2022-11-20T08:36:00;97377.56;;;4.22;100.00
17635;BME280;8936;49.010;12.120;2022-11-20T08:38:28;97379.22;;;4.11;100.00
17635;BME280;8936;49.010;12.120;2022-11-20T08:40:56;97390.47;;;4.07;100.00
17635;BME280;8936;49.010;12.120;2022-11-20T08:43:36;97388.56;;;4.02;100.00
17635;BME280;8936;49.010;12.120;2022-11-20T08:46:02;97385.44;;;4.05;100.00
17635;BME280;8936;49.010;12.120;2022-11-20T08:48:29;97400.38;;;4.00;100.00
17635;BME280;8936;49.010;12.120;2022-11-20T08:50:57;97393.25;;;4.00;100.00
17635;BME280;8936;49.010;12.120;2022-11-20T08:53:23;97388.56;;;4.02;100.00
17635;BME280;8936;49.010;12.120;2022-11-20T08:55:51;97390.72;;;4.05;100.00
17635;BME280;8936;49.010;12.120;2022-11-20T08:58:17;97392.91;;;4.08;100.00
17635;BME280;8936;49.010;12.120;2022-11-20T09:00:43;97393.53;;;4.15;100.00
17635;BME280;8936;49.010;12.120;2022-11-20T09:03:10;97393.22;;;4.12;100.00
17635;BME280;8936;49.010;12.120;2022-11-20T09:05:38;97398.75;;;4.10;100.00
17635;BME280;8936;49.010;12.120;2022-11-20T09:08:04;97395.63;;;4.13;100.00
17635;BME280;8936;49.010;12.120;2022-11-20T09:10:31;97386.56;;;4.09;100.00
17635;BME280;8936;49.010;12.120;2022-11-20T09:12:58;97394.94;;;4.06;100.00
17635;BME280;8936;49.010;12.120;2022-11-20T09:15:25;97397.72;;;4.11;100.00
17635;BME280;8936;49.010;12.120;2022-11-20T09:17:51;97387.00;;;4.18;100.00
17635;BME280;8936;49.010;12.120;2022-11-20T09:20:18;97389.41;;;4.19;100.00
17635;BME280;8936;49.010;12.120;2022-11-20T09:22:44;97397.44;;;4.24;100.00
17635;BME280;8936;49.010;12.120;2022-11-20T09:25:11;97387.25;;;4.16;100.00
17635;BME280;8936;49.010;12.120;2022-11-20T09:27:37;97394.22;;;4.22;100.00
17635;BME280;8936;49.010;12.120;2022-11-20T09:30:05;97382.50;;;4.30;100.00
17635;BME280;8936;49.010;12.120;2022-11-20T09:32:32;97381.78;;;4.34;100.00
17635;BME280;8936;49.010;12.120;2022-11-20T09:34:58;97383.25;;;4.30;100.00
17635;BME280;8936;49.010;12.120;2022-11-20T09:37:25;97386.19;;;4.46;100.00
17635;BME280;8936;49.010;12.120;2022-11-20T09:39:51;97385.28;;;4.52;100.00
17635;BME280;8936;49.010;12.120;2022-11-20T09:42:22;97384.88;;;4.60;100.00
17635;BME280;8936;49.010;12.120;2022-11-20T09:44:56;97380.25;;;4.67;100.00
17635;BME280;8936;49.010;12.120;2022-11-20T09:47:31;97385.06;;;4.70;100.00
17635;BME280;8936;49.010;12.120;2022-11-20T09:50:06;97384.75;;;4.38;100.00
17635;BME280;8936;49.010;12.120;2022-11-20T09:52:39;97375.84;;;4.72;100.00
17635;BME280;8936;49.010;12.120;2022-11-20T09:55:08;97382.03;;;4.78;100.00
17635;BME280;8936;49.010;12.120;2022-11-20T09:57:36;97382.16;;;4.71;100.00
17635;BME280;8936;49.010;12.120;2022-11-20T10:00:05;97378.88;;;4.64;100.00
17635;BME280;8936;49.010;12.120;2022-11-20T10:02:35;97388.00;;;4.57;100.00
17635;BME280;8936;49.010;12.120;2022-11-20T10:05:04;97379.84;;;4.75;100.00
17635;BME280;8936;49.010;12.120;2022-11-20T10:07:33;97377.16;;;4.58;100.00
17635;BME280;8936;49.010;12.120;2022-11-20T10:10:02;97374.97;;;4.67;100.00
17635;BME280;8936;49.010;12.120;2022-11-20T10:12:31;97372.25;;;4.78;100.00
17635;BME280;8936;49.010;12.120;2022-11-20T10:15:07;97371.91;;;4.75;100.00
17635;BME280;8936;49.010;12.120;2022-11-20T10:17:56;97364.97;;;4.85;100.00
17635;BME280;8936;49.010;12.120;2022-11-20T10:20:27;97368.09;;;4.82;100.00
17635;BME280;8936;49.010;12.120;2022-11-20T10:23:06;97372.72;;;4.92;100.00
17635;BME280;8936;49.010;12.120;2022-11-20T10:25:38;97356.41;;;4.95;100.00
17635;BME280;8936;49.010;12.120;2022-11-20T10:28:21;97363.34;;;4.84;100.00
17635;BME280;8936;49.010;12.120;2022-11-20T10:30:51;97362.56;;;4.84;100.00
17635;BME280;8936;49.010;12.120;2022-11-20T10:33:23;97363.94;;;5.03;100.00
17635;BME280;8936;49.010;12.120;2022-11-20T10:35:50;97362.78;;;4.99;100.00
17635;BME280;8936;49.010;12.120;2022-11-20T10:38:19;97349.06;;;5.02;100.00
17635;BME280;8936;49.010;12.120;2022-11-20T10:40:48;97357.66;;;5.09;100.00
17635;BME280;8936;49.010;12.120;2022-11-20T10:43:16;97351.34;;;5.10;100.00
17635;BME280;8936;49.010;12.120;2022-11-20T10:45:45;97359.28;;;5.10;100.00
17635;BME280;8936;49.010;12.120;2022-11-20T10:48:16;97347.97;;;4.98;100.00
17635;BME280;8936;49.010;12.120;2022-11-20T10:50:59;97359.03;;;4.95;100.00
17635;BME280;8936;49.010;12.120;2022-11-20T10:53:33;97355.56;;;4.78;100.00
17635;BME280;8936;49.010;12.120;2022-11-20T10:56:04;97348.34;;;4.90;100.00
17635;BME280;8936;49.010;12.120;2022-11-20T10:58:33;97343.16;;;4.95;100.00
17635;BME280;8936;49.010;12.120;2022-11-20T11:01:04;97350.06;;;5.13;100.00
17635;BME280;8936;49.010;12.120;2022-11-20T11:03:31;97343.47;;;4.99;100.00
17635;BME280;8936;49.010;12.120;2022-11-20T11:06:00;97341.72;;;5.04;100.00
17635;BME280;8936;49.010;12.120;2022-11-20T11:08:32;97334.75;;;4.98;100.00
17635;BME280;8936;49.010;12.120;2022-11-20T11:11:02;97340.91;;;4.87;100.00
17635;BME280;8936;49.010;12.120;2022-11-20T11:13:30;97341.13;;;5.02;100.00
17635;BME280;8936;49.010;12.120;2022-11-20T11:15:56;97333.28;;;4.90;100.00
17635;BME280;8936;49.010;12.120;2022-11-20T11:18:23;97344.19;;;5.11;100.00
17635;BME280;8936;49.010;12.120;2022-11-20T11:20:50;97337.78;;;4.90;100.00
17635;BME280;8936;49.010;12.120;2022-11-20T11:23:26;97340.97;;;4.92;100.00
17635;BME280;8936;49.010;12.120;2022-11-20T11:25:56;97332.59;;;4.95;100.00
17635;BME280;8936;49.010;12.120;2022-11-20T11:28:23;97332.47;;;4.90;100.00
17635;BME280;8936;49.010;12.120;2022-11-20T11:30:52;97326.94;;;5.08;100.00
17635;BME280;8936;49.010;12.120;2022-11-20T11:33:20;97329.59;;;5.08;100.00
17635;BME280;8936;49.010;12.120;2022-11-20T11:35:47;97320.22;;;5.01;100.00
17635;BME280;8936;49.010;12.120;2022-11-20T11:38:15;97316.94;;;4.94;100.00
17635;BME280;8936;49.010;12.120;2022-11-20T11:40:43;97323.81;;;5.11;100.00
17635;BME280;8936;49.010;12.120;2022-11-20T11:43:16;97325.97;;;5.14;100.00
17635;BME280;8936;49.010;12.120;2022-11-20T11:45:57;97319.66;;;5.15;100.00
17635;BME280;8936;49.010;12.120;2022-11-20T11:48:23;97317.41;;;5.07;100.00
17635;BME280;8936;49.010;12.120;2022-11-20T11:50:50;97314.84;;;5.12;100.00
17635;BME280;8936;49.010;12.120;2022-11-20T11:53:17;97312.94;;;5.29;100.00
17635;BME280;8936;49.010;12.120;2022-11-20T11:55:46;97318.25;;;5.29;100.00
17635;BME280;8936;49.010;12.120;2022-11-20T11:58:17;97313.88;;;5.18;100.00
17635;BME280;8936;49.010;12.120;2022-11-20T12:00:51;97311.84;;;5.25;100.00
17635;BME280;8936;49.010;12.120;2022-11-20T12:03:21;97321.41;;;5.10;100.00
17635;BME280;8936;49.010;12.120;2022-11-20T12:05:51;97303.13;;;5.08;100.00
17635;BME280;8936;49.010;12.120;2022-11-20T12:08:23;97310.03;;;5.09;100.00
17635;BME280;8936;49.010;12.120;2022-11-20T12:10:52;97313.75;;;5.30;100.00
17635;BME280;8936;49.010;12.120;2022-11-20T12:13:22;97313.19;;;5.44;100.00
17635;BME280;8936;49.010;12.120;2022-11-20T12:15:52;97315.69;;;5.34;100.00
17635;BME280;8936;49.010;12.120;2022-11-20T12:18:19;97310.66;;;5.16;100.00
17635;BME280;8936;49.010;12.120;2022-11-20T12:20:48;97314.03;;;5.28;100.00
17635;BME280;8936;49.010;12.120;2022-11-20T12:23:21;97301.19;;;5.20;100.00
17635;BME280;8936;49.010;12.120;2022-11-20T12:25:54;97295.88;;;5.20;100.00
17635;BME280;8936;49.010;12.120;2022-11-20T12:28:30;97291.53;;;5.31;100.00
17635;BME280;8936;49.010;12.120;2022-11-20T12:31:07;97296.66;;;5.37;100.00
17635;BME280;8936;49.010;12.120;2022-11-20T12:33:46;97297.47;;;5.38;100.00
17635;BME280;8936;49.010;12.120;2022-11-20T12:36:17;97289.31;;;5.23;100.00
17635;BME280;8936;49.010;12.120;2022-11-20T12:38:58;97297.06;;;5.29;100.00
17635;BME280;8936;49.010;12.120;2022-11-20T12:41:36;97293.34;;;5.25;100.00
17635;BME280;8936;49.010;12.120;2022-11-20T12:44:28;97287.66;;;5.38;100.00
17635;BME280;8936;49.010;12.120;2022-11-20T12:47:18;97291.59;;;5.36;100.00
17635;BME280;8936;49.010;12.120;2022-11-20T12:49:47;97297.00;;;5.24;100.00
17635;BME280;8936;49.010;12.120;2022-11-20T12:52:20;97295.50;;;5.50;100.00
17635;BME280;8936;49.010;12.120;2022-11-20T12:55:01;97289.75;;;5.36;100.00
17635;BME280;8936;49.010;12.120;2022-11-20T12:57:34;97283.53;;;5.26;100.00
17635;BME280;8936;49.010;12.120;2022-11-20T13:00:10;97283.84;;;5.29;100.00
17635;BME280;8936;49.010;12.120;2022-11-20T13:02:53;97278.78;;;5.44;100.00
17635;BME280;8936;49.010;12.120;2022-11-20T13:05:27;97278.94;;;5.60;100.00
17635;BME280;8936;49.010;12.120;2022-11-20T13:07:57;97280.97;;;5.31;100.00
17635;BME280;8936;49.010;12.120;2022-11-20T13:10:26;97287.19;;;5.41;100.00